Carroll, Iowa
Current Conditions -  °F | °C
As of 5:35 PM on Saturday 20 Dec 2014 (Local Time) from KCIN Reporting Station
Overcast Overcast  
Wind Chill: -3°   Ceiling: 900
Heat Index:   Visibility: 10mi
Dew Point:   Wind: 9mph
Humidity: 93%   Direction: 170°S
Pressure: 30.09"   Gusts: NA
Location:  42.07°N, 94.87°W
Report Text: KCIN 202335Z AUTO 17008KT 10SM OVC009 01/M00 A3009 RMK AO2
Loading
Personal Weather Stations






























Interactive Weather Map New forecast layout! Learn more

10-Day Weather Forecast

Advertisements
Track Severe Weather on mobile